Time;durP1;ratioP1;P1;durP2;ratioP2;P2;SDS_P1;SDS_P2;PMS_P1;PMS_P2;Temp;Humidity;BMP_temperature;BMP_pressure;BME280_temperature;BME280_humidity;BME280_pressure;Samples;Min_cycle;Max_cycle;Signal;HPM_P1;HPM_P2
2021/10/25 00:00:20;;;;;;;3.40;3.05;;;;;;;2.32;74.82;97986.59;5095383;28;20035;-64
2021/10/25 00:02:46;;;;;;;7.75;2.83;;;;;;;2.24;75.56;97981.31;5095247;28;20076;-62
2021/10/25 00:05:11;;;;;;;7.72;3.35;;;;;;;2.20;75.92;97971.72;5095285;28;20433;-63
2021/10/25 00:07:37;;;;;;;8.63;3.30;;;;;;;2.25;75.81;97979.56;5095278;28;20153;-64
2021/10/25 00:10:04;;;;;;;6.40;3.25;;;;;;;2.26;75.20;97981.34;5095176;28;20355;-61
2021/10/25 00:12:29;;;;;;;12.43;3.17;;;;;;;2.15;75.42;97973.38;5095080;28;20023;-62
2021/10/25 00:14:55;;;;;;;5.32;3.50;;;;;;;2.18;75.53;97982.88;5094964;28;20020;-63
2021/10/25 00:17:21;;;;;;;3.28;2.78;;;;;;;2.20;75.32;97987.22;5094974;28;20028;-63
2021/10/25 00:19:47;;;;;;;7.47;3.70;;;;;;;2.12;74.87;97975.91;5094836;28;20035;-64
2021/10/25 00:22:12;;;;;;;6.63;3.60;;;;;;;2.16;75.42;97980.28;5094842;28;20012;-64
2021/10/25 00:24:38;;;;;;;4.97;2.85;;;;;;;2.16;75.16;97980.28;5094870;28;20024;-61
2021/10/25 00:27:04;;;;;;;25.58;17.13;;;;;;;2.13;74.51;97986.25;5094782;28;20543;-62
2021/10/25 00:29:29;;;;;;;21.65;15.60;;;;;;;2.13;74.83;97975.94;5094647;28;20115;-65
2021/10/25 00:31:55;;;;;;;14.90;7.78;;;;;;;2.12;74.46;97981.94;5094766;28;20024;-64
2021/10/25 00:34:20;;;;;;;8.80;5.93;;;;;;;2.07;74.78;97980.09;5094761;28;20012;-64
2021/10/25 00:36:46;;;;;;;10.20;4.80;;;;;;;2.09;74.46;97981.00;5094698;28;20155;-65
2021/10/25 00:39:12;;;;;;;8.30;3.88;;;;;;;2.01;74.92;97973.97;5094421;28;20020;-61
2021/10/25 00:41:38;;;;;;;7.32;3.58;;;;;;;2.02;75.39;97975.72;5094692;28;20358;-65
2021/10/25 00:44:04;;;;;;;6.03;3.35;;;;;;;2.07;74.73;97978.38;5094497;28;20024;-62
2021/10/25 00:46:30;;;;;;;5.82;3.72;;;;;;;2.01;74.59;97973.97;5094628;28;20115;-63
2021/10/25 00:48:55;;;;;;;8.48;3.58;;;;;;;1.98;75.06;97973.94;5094343;28;20470;-65
2021/10/25 00:51:22;;;;;;;5.70;3.30;;;;;;;1.97;74.74;97984.22;5094382;28;20028;-61
2021/10/25 00:53:48;;;;;;;5.40;3.03;;;;;;;1.88;75.12;97980.63;5094214;28;20024;-65
2021/10/25 00:56:13;;;;;;;6.20;3.28;;;;;;;1.92;75.18;97985.84;5094317;28;20027;-65
2021/10/25 00:58:39;;;;;;;4.78;3.60;;;;;;;1.91;75.32;97976.34;5094068;28;20036;-64
2021/10/25 01:01:05;;;;;;;9.00;4.05;;;;;;;1.93;75.46;97979.84;5094012;28;20031;-64
2021/10/25 01:03:31;;;;;;;6.22;3.65;;;;;;;1.92;75.68;97971.22;5094062;28;20385;-64
2021/10/25 01:05:57;;;;;;;6.28;3.40;;;;;;;1.94;75.53;97969.56;5094243;28;20013;-63
2021/10/25 01:08:26;;;;;;;9.13;3.80;;;;;;;1.92;75.49;97972.94;5093972;28;20153;-64
2021/10/25 01:10:52;;;;;;;4.75;2.72;;;;;;;1.91;74.74;97976.34;5094056;28;20020;-62
2021/10/25 01:13:18;;;;;;;11.05;2.88;;;;;;;1.91;74.85;97974.66;5093932;28;20032;-64
2021/10/25 01:15:44;;;;;;;6.85;2.67;;;;;;;1.89;74.76;97966.88;5092580;28;20023;-62
2021/10/25 01:18:09;;;;;;;3.00;2.50;;;;;;;1.86;74.52;97973.69;5094011;28;20016;-65
2021/10/25 01:20:35;;;;;;;5.25;3.13;;;;;;;1.82;74.65;97966.72;5093677;28;20465;-63
2021/10/25 01:23:01;;;;;;;5.55;3.30;;;;;;;1.74;74.82;97966.56;5093769;28;20032;-65
2021/10/25 01:25:27;;;;;;;5.47;3.30;;;;;;;1.67;75.22;97967.28;5093781;28;20028;-63
2021/10/25 01:27:56;;;;;;;7.00;3.55;;;;;;;1.55;76.63;97968.78;5093587;28;20110;-65
2021/10/25 01:30:21;;;;;;;5.15;3.25;;;;;;;1.58;76.62;97971.44;5093612;28;20031;-62
2021/10/25 01:32:49;;;;;;;6.70;3.40;;;;;;;1.61;76.75;97979.22;5093736;28;20032;-62
2021/10/25 01:35:16;;;;;;;10.80;3.60;;;;;;;1.63;76.31;97974.94;5093784;28;20074;-65
2021/10/25 01:37:42;;;;;;;4.47;2.58;;;;;;;1.62;76.22;97978.38;5093587;28;20027;-66
2021/10/25 01:40:09;;;;;;;5.00;3.13;;;;;;;1.63;76.49;97974.09;5093585;28;20024;-67
2021/10/25 01:42:36;;;;;;;5.20;2.92;;;;;;;1.59;76.22;97974.84;5093478;28;20104;-61
2021/10/25 01:45:03;;;;;;;4.72;3.28;;;;;;;1.59;76.28;97974.84;5093448;28;20023;-66
2021/10/25 01:47:28;;;;;;;6.57;3.20;;;;;;;1.53;76.53;97969.59;5093505;28;20028;-64
2021/10/25 01:49:54;;;;;;;6.95;3.30;;;;;;;1.55;76.38;97976.50;5093396;28;20078;-63
2021/10/25 01:52:20;;;;;;;5.78;3.47;;;;;;;1.61;76.26;97973.19;5093399;28;20115;-66
2021/10/25 01:54:46;;;;;;;5.45;3.05;;;;;;;1.59;76.22;97973.16;5093381;28;20028;-66
2021/10/25 01:57:11;;;;;;;4.45;3.28;;;;;;;1.58;76.35;97971.44;5092897;28;20358;-62
2021/10/25 01:59:37;;;;;;;9.32;3.28;;;;;;;1.53;76.40;97970.44;5092980;28;20087;-66
2021/10/25 02:02:03;;;;;;;5.90;3.20;;;;;;;1.51;76.24;97974.72;5093197;28;20028;-63
2021/10/25 02:04:30;;;;;;;10.57;3.22;;;;;;;1.54;76.09;97968.75;5093131;28;20074;-67
2021/10/25 02:06:56;;;;;;;8.43;4.05;;;;;;;1.55;76.09;97970.47;5093161;28;20024;-65
2021/10/25 02:09:21;;;;;;;5.20;3.00;;;;;;;1.54;75.65;97972.19;5093155;28;20031;-64
2021/10/25 02:11:47;;;;;;;5.40;3.67;;;;;;;1.48;76.13;97977.22;5093078;28;20481;-64
2021/10/25 02:14:14;;;;;;;7.07;3.45;;;;;;;1.45;76.53;97970.31;5093151;28;20016;-62
2021/10/25 02:16:39;;;;;;;8.23;3.00;;;;;;;1.48;75.94;97977.22;5093093;28;20096;-66
2021/10/25 02:19:05;;;;;;;6.10;2.75;;;;;;;1.43;75.99;97969.38;5092961;28;20549;-66
2021/10/25 02:21:31;;;;;;;6.28;2.88;;;;;;;1.43;75.96;97966.81;5093106;28;20024;-64
2021/10/25 02:23:57;;;;;;;11.85;2.97;;;;;;;1.43;75.42;97969.38;5093021;28;20082;-63
2021/10/25 02:26:22;;;;;;;7.68;3.25;;;;;;;1.40;75.94;97964.16;5092967;28;20082;-64
2021/10/25 02:28:48;;;;;;;7.88;3.83;;;;;;;1.38;75.74;97977.03;5093040;28;20028;-65
2021/10/25 02:31:14;;;;;;;5.28;3.45;;;;;;;1.37;76.27;97972.72;5093081;28;20035;-63
2021/10/25 02:33:39;;;;;;;6.22;3.42;;;;;;;1.38;76.06;97979.59;5093031;28;20625;-65
2021/10/25 02:36:07;;;;;;;7.30;3.92;;;;;;;1.38;76.30;97982.19;5092987;28;20359;-64
2021/10/25 02:38:34;;;;;;;4.72;3.05;;;;;;;1.41;76.18;97989.09;5092833;28;20077;-66
2021/10/25 02:41:00;;;;;;;5.28;3.22;;;;;;;1.38;75.55;97984.75;5092757;28;20527;-64
2021/10/25 02:43:26;;;;;;;4.05;3.28;;;;;;;1.33;75.50;97988.06;5092841;28;20024;-62
2021/10/25 02:45:52;;;;;;;5.75;2.97;;;;;;;1.29;76.22;97986.28;5092733;28;20070;-62
2021/10/25 02:48:17;;;;;;;7.13;3.45;;;;;;;1.30;75.87;97983.72;5092942;28;20032;-67
2021/10/25 02:50:43;;;;;;;7.05;3.28;;;;;;;1.29;76.42;97984.53;5092709;28;20020;-65
2021/10/25 02:53:09;;;;;;;4.75;2.70;;;;;;;1.30;76.28;97975.13;5092658;28;20022;-63
2021/10/25 02:55:35;;;;;;;4.10;2.58;;;;;;;1.30;76.06;97980.28;5092788;28;20024;-64
2021/10/25 02:58:02;;;;;;;9.27;3.13;;;;;;;1.25;76.42;97978.47;5092611;28;20409;-65
2021/10/25 03:00:27;;;;;;;6.13;3.10;;;;;;;1.28;76.40;97977.66;5092724;28;20062;-66
2021/10/25 03:02:53;;;;;;;10.38;3.45;;;;;;;1.29;75.88;97976.81;5092648;28;20052;-63
2021/10/25 03:05:19;;;;;;;3.85;2.97;;;;;;;1.29;76.10;97981.13;5092839;28;20476;-62
2021/10/25 03:07:44;;;;;;;6.93;3.20;;;;;;;1.22;76.30;97980.97;5092687;28;20021;-65
2021/10/25 03:10:10;;;;;;;5.25;3.13;;;;;;;1.14;76.78;97979.91;5095960;28;20080;-65
2021/10/25 03:12:36;;;;;;;5.30;3.38;;;;;;;1.09;76.85;97986.69;5096356;28;20027;-64
2021/10/25 03:15:04;;;;;;;5.93;3.25;;;;;;;1.10;76.87;97979.00;5096106;28;20024;-63
2021/10/25 03:17:30;;;;;;;5.68;3.22;;;;;;;1.02;76.81;97971.94;5096198;28;20016;-63
2021/10/25 03:19:55;;;;;;;6.50;3.13;;;;;;;1.07;77.19;97983.19;5096101;28;20375;-64
2021/10/25 03:22:21;;;;;;;6.78;3.22;;;;;;;1.12;76.32;97973.88;5096085;28;20484;-67
2021/10/25 03:24:46;;;;;;;11.27;3.78;;;;;;;1.08;77.43;97977.22;5096115;28;20381;-65
2021/10/25 03:27:12;;;;;;;5.18;3.33;;;;;;;1.08;77.41;97979.81;5096015;28;20462;-64
2021/10/25 03:29:38;;;;;;;9.93;7.25;;;;;;;1.12;77.82;97984.19;5095977;28;20032;-65
2021/10/25 03:32:03;;;;;;;20.10;13.75;;;;;;;1.14;77.79;97979.91;5095910;28;20078;-65
2021/10/25 03:34:29;;;;;;;9.50;4.40;;;;;;;1.15;77.86;97985.94;5095847;28;20477;-66
2021/10/25 03:36:56;;;;;;;12.68;4.32;;;;;;;1.12;77.88;97986.75;5095804;28;20020;-67
2021/10/25 03:39:24;;;;;;;8.48;3.83;;;;;;;1.11;77.36;97982.41;5095681;28;20020;-67
2021/10/25 03:41:53;;;;;;;5.45;4.07;;;;;;;1.11;77.42;97980.72;5095754;28;20445;-63
2021/10/25 03:44:35;;;;;;;5.13;3.67;;;;;;;1.16;76.81;97982.53;5095661;28;20085;-64
2021/10/25 03:47:09;;;;;;;5.50;3.50;;;;;;;1.13;76.69;97973.03;5095566;28;20115;-66
2021/10/25 03:49:53;;;;;;;5.25;3.15;;;;;;;1.13;76.54;97973.91;5095558;28;20105;-64
2021/10/25 03:52:28;;;;;;;7.38;4.03;;;;;;;1.07;77.06;97975.47;5095467;28;20032;-66
2021/10/25 03:55:06;;;;;;;7.97;4.00;;;;;;;1.06;77.45;97982.34;5095541;28;20103;-65
2021/10/25 04:25:15;;;;;;;7.50;3.35;;;;;;;1.09;76.85;97973.81;5095510;28;20042;-67
2021/10/25 04:28:20;;;;;;;9.05;4.07;;;;;;;0.99;76.44;97971.00;5094794;28;20031;-67
2021/10/25 04:30:18;;;;;;;7.72;3.20;;;;;;;0.96;76.02;97973.50;5087292;28;20044;-64
2021/10/25 04:32:44;;;;;;;8.43;3.63;;;;;;;0.94;75.84;97972.63;5094746;28;20059;-66
2021/10/25 04:35:10;;;;;;;5.65;3.40;;;;;;;0.88;76.18;97968.16;5093437;28;20051;-63
2021/10/25 04:37:36;;;;;;;7.57;2.75;;;;;;;0.87;76.58;97969.00;5094709;28;20050;-62
2021/10/25 04:40:04;;;;;;;5.45;3.50;;;;;;;0.87;76.28;97981.00;5094506;28;20466;-66
2021/10/25 04:42:30;;;;;;;7.80;3.75;;;;;;;0.87;76.43;97974.16;5094596;28;20027;-65
2021/10/25 04:44:55;;;;;;;9.20;4.07;;;;;;;0.87;76.08;97976.75;5094463;28;20373;-64
2021/10/25 04:47:21;;;;;;;10.02;3.80;;;;;;;0.79;76.40;97977.41;5094525;28;20029;-65
2021/10/25 04:49:47;;;;;;;6.68;3.90;;;;;;;0.82;76.45;97974.91;5094388;28;20424;-65
2021/10/25 04:52:12;;;;;;;4.93;3.63;;;;;;;0.89;76.36;97981.94;5094253;28;20020;-66
2021/10/25 04:54:38;;;;;;;10.13;3.42;;;;;;;0.93;75.88;97985.47;5094268;28;20481;-66
2021/10/25 04:57:04;;;;;;;9.05;3.75;;;;;;;0.90;76.09;97983.66;5094285;28;20077;-65
2021/10/25 04:59:30;;;;;;;6.55;3.65;;;;;;;0.88;76.50;97987.94;5094036;28;20048;-66
2021/10/25 05:01:56;;;;;;;6.80;3.58;;;;;;;0.91;76.81;97992.28;5094035;28;20049;-65
2021/10/25 05:04:23;;;;;;;6.70;3.45;;;;;;;0.88;77.56;97993.09;5094135;28;20024;-65
2021/10/25 05:06:49;;;;;;;10.07;3.08;;;;;;;0.92;77.43;97994.00;5094148;28;20454;-64
2021/10/25 05:09:15;;;;;;;7.03;3.67;;;;;;;0.94;76.50;97993.25;5093997;28;20031;-67
2021/10/25 05:11:40;;;;;;;5.53;3.42;;;;;;;0.93;76.78;97999.22;5094213;28;20020;-62
2021/10/25 05:14:07;;;;;;;9.10;3.47;;;;;;;0.99;76.93;98001.06;5093880;28;20359;-65
2021/10/25 05:16:33;;;;;;;5.85;2.85;;;;;;;1.05;77.23;98010.66;5093872;28;20069;-64
2021/10/25 05:18:58;;;;;;;13.43;3.50;;;;;;;1.13;77.05;98019.44;5093798;28;20020;-66
2021/10/25 05:21:24;;;;;;;7.07;3.08;;;;;;;1.30;76.97;98018.94;5093812;28;20500;-63
2021/10/25 05:23:49;;;;;;;7.07;3.72;;;;;;;2.22;76.39;98019.13;5093806;28;20024;-67
2021/10/25 05:26:15;;;;;;;4.13;2.92;;;;;;;3.67;71.45;98018.84;5093734;28;20020;-65
2021/10/25 05:28:41;;;;;;;3.00;2.28;;;;;;;5.11;65.81;98011.66;5093603;28;20031;-63
2021/10/25 05:31:10;;;;;;;6.13;2.72;;;;;;;6.46;62.14;98016.69;5093065;28;20405;-64
2021/10/25 05:33:37;;;;;;;8.18;2.38;;;;;;;7.75;57.96;98017.50;5093676;28;20118;-68
2021/10/25 05:36:04;;;;;;;7.05;3.20;;;;;;;8.96;53.86;98011.66;5093617;28;20040;-65
2021/10/25 05:38:29;;;;;;;5.45;2.83;;;;;;;10.02;50.26;98011.50;5093511;28;20024;-64
2021/10/25 05:40:55;;;;;;;9.10;1.92;;;;;;;10.99;48.26;98017.13;5093419;28;20030;-65
2021/10/25 05:43:21;;;;;;;2.70;2.00;;;;;;;11.50;46.27;98012.75;5093524;28;20057;-61
2021/10/25 05:45:47;;;;;;;3.35;2.25;;;;;;;12.32;44.69;98025.19;5093452;28;20024;-61
2021/10/25 05:48:12;;;;;;;4.45;2.17;;;;;;;13.10;42.60;98019.94;5093425;28;20035;-63
2021/10/25 05:50:38;;;;;;;3.40;2.40;;;;;;;13.81;41.82;98021.66;5093261;28;20031;-61
2021/10/25 05:53:04;;;;;;;3.30;2.42;;;;;;;14.50;40.76;98020.56;5093428;28;20028;-63
2021/10/25 05:55:30;;;;;;;4.28;2.58;;;;;;;15.23;38.15;98025.34;5093390;28;20099;-62
2021/10/25 05:57:57;;;;;;;4.70;2.22;;;;;;;15.76;38.01;98039.38;5092996;28;20059;-63
2021/10/25 06:00:33;;;;;;;3.97;1.98;;;;;;;16.40;36.69;98040.59;5093253;28;20032;-67
2021/10/25 06:03:00;;;;;;;4.88;2.00;;;;;;;17.16;35.88;98038.59;5093224;28;20137;-61
2021/10/25 06:05:30;;;;;;;2.75;1.95;;;;;;;17.78;34.97;98043.06;5093254;28;20055;-61
2021/10/25 06:07:57;;;;;;;5.20;2.30;;;;;;;18.50;34.05;98037.25;5093177;28;20024;-62
2021/10/25 06:10:27;;;;;;;4.72;2.22;;;;;;;19.08;32.70;98037.22;5093173;28;20421;-62
2021/10/25 06:12:53;;;;;;;5.60;1.90;;;;;;;19.39;31.90;98044.50;5093213;28;20112;-65
2021/10/25 06:15:23;;;;;;;5.88;2.20;;;;;;;19.35;32.44;98050.91;5093134;28;20252;-66
2021/10/25 06:17:55;;;;;;;3.53;2.17;;;;;;;19.90;32.23;98056.97;5093033;28;20047;-65
2021/10/25 06:20:25;;;;;;;2.17;1.98;;;;;;;20.66;31.35;98049.47;5093001;28;20032;-62
2021/10/25 06:22:51;;;;;;;4.65;2.05;;;;;;;21.08;30.10;98054.28;5093020;28;20024;-66
2021/10/25 06:25:17;;;;;;;2.67;1.90;;;;;;;21.50;29.88;98051.00;5093046;28;20028;-62
2021/10/25 06:27:44;;;;;;;8.43;1.80;;;;;;;22.15;29.39;98048.97;5093142;28;20347;-62
2021/10/25 06:30:10;;;;;;;3.70;2.40;;;;;;;22.70;28.42;98057.97;5092994;28;20081;-65
2021/10/25 06:32:36;;;;;;;2.88;1.92;;;;;;;23.09;28.44;98057.31;5093014;28;20028;-62
2021/10/25 06:35:05;;;;;;;4.45;2.47;;;;;;;23.66;27.37;98059.88;5092973;28;20453;-62
2021/10/25 06:37:48;;;;;;;6.93;3.08;;;;;;;24.09;26.77;98066.72;5092917;28;20101;-65
2021/10/25 06:40:14;;;;;;;4.97;2.95;;;;;;;23.35;27.20;98058.25;5092764;28;20028;-64
2021/10/25 06:42:40;;;;;;;4.57;2.45;;;;;;;23.80;27.27;98064.25;5094030;28;20028;-64
2021/10/25 06:45:08;;;;;;;7.05;2.63;;;;;;;23.76;27.27;98060.09;5096805;28;20030;-65
2021/10/25 06:47:35;;;;;;;5.97;2.55;;;;;;;24.02;27.26;98065.47;5096750;28;20412;-61
2021/10/25 06:50:00;;;;;;;6.70;2.40;;;;;;;24.47;26.66;98065.03;5096679;28;20028;-66
2021/10/25 06:52:26;;;;;;;4.00;2.60;;;;;;;24.82;25.33;98056.28;5096764;28;20024;-64
2021/10/25 06:54:52;;;;;;;3.78;2.50;;;;;;;24.86;25.22;98063.09;5096588;28;20078;-66
2021/10/25 06:57:17;;;;;;;3.95;2.58;;;;;;;24.97;24.92;98070.38;5096555;28;20078;-62
2021/10/25 06:59:43;;;;;;;5.60;2.65;;;;;;;25.11;25.04;98069.34;5096259;28;20116;-65
2021/10/25 07:02:08;;;;;;;4.38;2.28;;;;;;;25.58;24.55;98062.38;5096524;28;20059;-63
2021/10/25 07:04:34;;;;;;;3.97;2.30;;;;;;;25.57;24.96;98066.88;5096549;28;20034;-64
2021/10/25 07:07:00;;;;;;;4.63;2.08;;;;;;;25.68;24.75;98067.94;5096407;28;20435;-63
2021/10/25 07:09:25;;;;;;;4.70;2.70;;;;;;;25.97;24.46;98073.72;5096291;28;20039;-62
2021/10/25 07:11:51;;;;;;;4.03;2.50;;;;;;;25.83;23.77;98064.06;5096285;28;20025;-62
2021/10/25 07:14:24;;;;;;;6.93;2.55;;;;;;;26.18;23.47;98059.59;5096220;28;20080;-62
2021/10/25 07:16:55;;;;;;;4.43;2.60;;;;;;;26.29;22.47;98060.59;5096310;28;20035;-64
2021/10/25 08:07:42;;;;;;;5.57;2.10;;;;;;;15.81;32.82;98040.09;5095450;28;20028;-63
2021/10/25 08:10:35;;;;;;;3.35;1.80;;;;;;;15.19;35.16;98029.84;5095267;28;20393;-66
2021/10/25 08:12:57;;;;;;;5.93;2.15;;;;;;;15.07;35.88;98017.94;5094918;28;20036;-64
2021/10/25 08:15:27;;;;;;;3.53;2.08;;;;;;;15.23;34.65;98028.00;5095509;28;20058;-61
2021/10/25 08:17:59;;;;;;;2.30;1.83;;;;;;;14.90;34.52;98023.78;5095208;28;20028;-65
2021/10/25 08:20:25;;;;;;;2.95;1.80;;;;;;;15.00;35.66;98013.78;5094998;28;20420;-63
2021/10/25 08:22:51;;;;;;;4.70;2.33;;;;;;;15.13;36.90;98011.59;5094990;28;20024;-65
2021/10/25 08:25:17;;;;;;;7.15;2.08;;;;;;;15.13;36.30;98016.88;5094901;28;20027;-63
2021/10/25 08:27:42;;;;;;;5.35;1.65;;;;;;;15.07;34.31;98019.69;5094854;28;20085;-62
2021/10/25 08:30:11;;;;;;;6.35;3.03;;;;;;;14.78;37.40;98017.13;5094847;28;20024;-64
2021/10/25 08:35:31;;;;;;;4.22;2.35;;;;;;;14.39;39.45;98016.47;5094706;28;20153;-63
2021/10/25 08:40:40;;;;;;;4.25;2.50;;;;;;;13.51;37.44;98025.06;5094577;28;20139;-63
2021/10/25 08:43:07;;;;;;;5.30;2.20;;;;;;;13.63;38.03;98026.50;5094446;28;20024;-63
2021/10/25 08:45:34;;;;;;;7.43;2.58;;;;;;;13.68;37.83;98015.88;5094581;28;20028;-66
2021/10/25 08:48:02;;;;;;;4.72;2.17;;;;;;;13.87;36.70;98010.94;5094483;28;20076;-63
2021/10/25 08:50:35;;;;;;;4.68;2.30;;;;;;;13.87;39.62;98009.19;5094315;28;20458;-62
2021/10/25 08:53:06;;;;;;;3.05;2.08;;;;;;;13.72;36.42;98012.25;5094381;28;20035;-66
2021/10/25 08:55:32;;;;;;;3.70;1.80;;;;;;;13.82;36.78;98007.59;5094346;28;20118;-63
2021/10/25 08:57:58;;;;;;;4.13;2.38;;;;;;;13.82;37.22;98005.81;5094052;28;20124;-61
2021/10/25 09:00:47;;;;;;;3.50;2.28;;;;;;;13.39;37.47;98002.56;5094117;28;20032;-61
2021/10/25 09:03:13;;;;;;;7.45;2.30;;;;;;;13.22;37.72;98008.25;5094223;28;20393;-63
2021/10/25 09:05:40;;;;;;;3.40;2.03;;;;;;;13.08;39.00;98000.72;5093514;28;20024;-63
2021/10/25 09:08:10;;;;;;;5.03;2.72;;;;;;;13.14;38.57;98008.44;5093747;28;20028;-62
2021/10/25 09:10:43;;;;;;;5.35;2.97;;;;;;;13.25;38.28;98008.19;5094003;28;20020;-62
2021/10/25 09:13:18;;;;;;;6.38;2.72;;;;;;;13.24;37.27;97996.81;5092734;28;20028;-61
2021/10/25 09:15:56;;;;;;;5.90;2.67;;;;;;;13.29;36.47;98007.19;5093936;28;20056;-63
2021/10/25 09:18:32;;;;;;;4.00;2.40;;;;;;;13.20;37.60;97999.53;5093918;28;20489;-63
2021/10/25 09:21:01;;;;;;;3.13;2.25;;;;;;;13.21;39.26;97996.88;5094008;28;20154;-63
2021/10/25 09:23:37;;;;;;;7.63;2.90;;;;;;;13.45;38.19;97989.25;5093818;28;20024;-64
2021/10/25 09:26:29;;;;;;;4.65;3.17;;;;;;;13.59;38.91;97994.19;5093739;28;20031;-62
2021/10/25 09:29:00;;;;;;;4.40;2.60;;;;;;;13.74;38.80;97997.28;5092520;28;20066;-65
2021/10/25 09:31:32;;;;;;;;;;;;;;;13.98;36.37;97994.88;5094197;28;20036;-61
2021/10/25 09:34:10;;;;;;;7.97;2.83;;;;;;;13.94;37.60;97980.94;5092695;28;19908;-62
2021/10/25 09:36:42;;;;;;;5.18;3.10;;;;;;;13.98;38.03;97977.34;5093640;28;20367;-62
2021/10/25 09:39:27;;;;;;;7.10;2.33;;;;;;;14.12;37.99;97976.91;5093487;28;20032;-63
2021/10/25 09:50:00;;;;;;;2.63;1.85;;;;;;;14.05;36.58;97964.00;5093720;28;20035;-64
2021/10/25 09:52:36;;;;;;;4.38;2.38;;;;;;;13.88;36.23;97958.31;5093441;28;20035;-60
2021/10/25 09:55:08;;;;;;;4.53;2.42;;;;;;;13.85;36.50;97955.75;5093409;28;20099;-64
2021/10/25 09:57:40;;;;;;;4.25;2.17;;;;;;;13.80;37.05;97946.28;5093328;28;20039;-64
2021/10/25 10:00:09;;;;;;;6.97;2.67;;;;;;;13.81;36.06;97943.59;5093194;28;20048;-63
2021/10/25 10:02:36;;;;;;;5.25;2.60;;;;;;;13.89;37.42;97938.13;5093306;28;20020;-65
2021/10/25 10:05:05;;;;;;;3.17;2.53;;;;;;;13.95;38.50;97939.72;5093412;28;20473;-64
2021/10/25 10:07:32;;;;;;;4.35;2.60;;;;;;;13.83;38.60;97940.94;5093274;28;20024;-65
2021/10/25 10:09:58;;;;;;;3.78;2.10;;;;;;;13.53;37.61;97933.88;5093337;28;20020;-64
2021/10/25 10:12:26;;;;;;;4.07;2.13;;;;;;;13.36;38.12;97927.28;5093145;28;20074;-62
2021/10/25 10:14:58;;;;;;;2.25;1.90;;;;;;;13.32;39.44;97920.41;5093074;28;20423;-62
2021/10/25 10:17:32;;;;;;;4.90;2.00;;;;;;;13.36;36.96;97929.03;5093934;28;20097;-64
2021/10/25 10:20:04;;;;;;;3.33;2.20;;;;;;;13.33;36.95;97926.53;5097387;28;20070;-61
2021/10/25 10:22:32;;;;;;;5.43;2.35;;;;;;;13.02;38.50;97920.31;5097428;28;20032;-63
2021/10/25 10:24:58;;;;;;;4.05;2.17;;;;;;;12.89;37.68;97917.13;5097180;28;20381;-62
2021/10/25 10:27:24;;;;;;;6.18;2.13;;;;;;;12.93;38.46;97910.03;5097132;28;20047;-63
2021/10/25 10:30:00;;;;;;;2.92;1.77;;;;;;;12.99;39.09;97912.50;5097075;28;20055;-65
2021/10/25 10:32:32;;;;;;;5.75;2.08;;;;;;;13.14;38.93;97908.59;5097155;28;20020;-64
2021/10/25 10:35:04;;;;;;;5.13;2.17;;;;;;;13.10;38.00;97897.31;5097173;28;20028;-62
2021/10/25 10:37:32;;;;;;;3.90;2.20;;;;;;;13.00;36.74;97899.31;5096972;28;20031;-65
2021/10/25 10:40:12;;;;;;;3.08;1.90;;;;;;;12.99;38.51;97895.00;5096908;28;20057;-60
2021/10/25 10:42:43;;;;;;;4.50;2.07;;;;;;;12.94;38.75;97894.22;5097066;28;20050;-64
2021/10/25 10:45:11;;;;;;;4.72;2.20;;;;;;;12.98;39.06;97895.03;5096956;28;20652;-61
2021/10/25 10:47:53;;;;;;;3.70;2.30;;;;;;;13.01;38.67;97889.69;5096886;28;20114;-60
2021/10/25 10:50:21;;;;;;;5.28;2.13;;;;;;;13.01;38.11;97887.06;5096824;28;20081;-62
2021/10/25 10:53:09;;;;;;;3.20;1.80;;;;;;;13.00;37.55;97875.69;5096601;28;20016;-63
2021/10/25 10:55:38;;;;;;;4.22;1.85;;;;;;;12.94;35.17;97875.00;5096813;28;20077;-65
2021/10/25 11:00:44;;;;;;;2.83;1.85;;;;;;;12.83;34.40;97860.38;5096585;28;20055;-64
2021/10/25 11:03:22;;;;;;;2.28;2.08;;;;;;;12.73;36.07;97859.75;5096524;28;20042;-63
2021/10/25 11:06:01;;;;;;;4.05;2.45;;;;;;;12.55;36.60;97850.56;5096503;28;20058;-60
2021/10/25 11:08:35;;;;;;;3.03;1.90;;;;;;;12.53;37.03;97852.41;5096472;28;20028;-64
2021/10/25 11:11:08;;;;;;;6.97;2.13;;;;;;;12.56;38.39;97851.44;5096345;28;20111;-63
2021/10/25 11:13:43;;;;;;;4.32;1.98;;;;;;;12.58;38.64;97845.25;5096320;28;20028;-65
2021/10/25 11:18:58;;;;;;;5.32;2.45;;;;;;;12.53;37.31;97834.03;5096616;28;20043;-62
2021/10/25 11:21:54;;;;;;;5.88;2.17;;;;;;;12.55;39.40;97834.81;5096058;28;20052;-64
2021/10/25 11:24:21;;;;;;;2.67;1.90;;;;;;;12.69;37.11;97837.09;5095477;28;20040;-62
2021/10/25 11:26:52;;;;;;;5.55;2.28;;;;;;;12.77;37.56;97821.16;5096104;28;20489;-61
2021/10/25 11:29:31;;;;;;;4.43;2.00;;;;;;;12.95;37.20;97829.44;5094964;28;20024;-63
2021/10/25 11:32:03;;;;;;;3.97;2.13;;;;;;;12.86;37.33;97820.88;5095923;28;20070;-62
2021/10/25 11:34:32;;;;;;;4.93;2.13;;;;;;;12.77;38.16;97827.25;5095945;28;20024;-65
2021/10/25 11:37:04;;;;;;;4.00;2.10;;;;;;;12.69;37.93;97823.97;5095845;28;20028;-65
2021/10/25 11:40:27;;;;;;;3.22;2.03;;;;;;;12.81;39.08;97811.41;5095598;28;20040;-65
2021/10/25 11:42:30;;;;;;;6.43;2.72;;;;;;;12.86;41.27;97805.13;5088434;28;20051;-63
2021/10/25 11:44:59;;;;;;;3.75;2.80;;;;;;;12.94;43.53;97812.81;5095828;28;20024;-62
2021/10/25 11:47:27;;;;;;;3.53;2.20;;;;;;;13.03;40.36;97809.06;5095794;28;20024;-64
2021/10/25 11:49:57;;;;;;;3.13;2.30;;;;;;;13.01;40.75;97805.63;5095653;28;20048;-64
2021/10/25 11:52:23;;;;;;;5.75;3.05;;;;;;;13.03;39.26;97816.94;5095642;28;20111;-64
2021/10/25 11:54:53;;;;;;;5.20;2.65;;;;;;;12.92;40.52;97811.13;5095549;28;20078;-63
2021/10/25 11:57:23;;;;;;;12.23;2.75;;;;;;;12.95;41.14;97808.44;5095575;28;20089;-64
2021/10/25 12:00:04;;;;;;;5.05;2.50;;;;;;;12.97;42.18;97814.47;5094183;28;20250;-62
2021/10/25 12:02:31;;;;;;;8.15;2.85;;;;;;;12.94;41.39;97798.84;5096931;28;20043;-60
2021/10/25 12:04:57;;;;;;;4.47;2.78;;;;;;;13.06;41.86;97806.34;5095435;28;20115;-64
2021/10/25 12:07:24;;;;;;;6.07;2.90;;;;;;;12.97;42.00;97803.97;5095627;28;20067;-61
2021/10/25 12:10:01;;;;;;;5.13;2.42;;;;;;;13.10;40.42;97802.72;5096914;28;20455;-63
2021/10/25 12:12:27;;;;;;;5.50;3.05;;;;;;;12.84;39.50;97801.72;5095483;28;20028;-64
2021/10/25 12:14:58;;;;;;;5.55;3.30;;;;;;;12.43;40.59;97795.78;5095288;28;20016;-65
2021/10/25 12:17:33;;;;;;;4.63;2.55;;;;;;;12.36;40.81;97793.31;5095206;28;20465;-63
2021/10/25 12:20:00;;;;;;;5.45;2.90;;;;;;;12.38;42.86;97798.53;5095023;28;20388;-62
2021/10/25 12:22:25;;;;;;;6.55;2.80;;;;;;;12.34;43.22;97797.72;5095101;28;20052;-66
2021/10/25 12:24:54;;;;;;;6.28;2.90;;;;;;;12.43;43.88;97804.50;5095361;28;20035;-65
2021/10/25 12:27:28;;;;;;;4.90;2.58;;;;;;;12.59;42.01;97793.63;5094888;28;20070;-62
2021/10/25 12:30:07;;;;;;;6.05;3.55;;;;;;;12.58;43.14;97790.13;5094915;28;20111;-65
2021/10/25 12:32:35;;;;;;;3.83;2.97;;;;;;;12.55;40.57;97799.88;5095037;28;20431;-61
2021/10/25 12:35:03;;;;;;;5.18;2.42;;;;;;;12.51;41.41;97799.06;5094734;28;20043;-65
2021/10/25 12:37:32;;;;;;;3.25;2.47;;;;;;;12.62;40.92;97788.28;5094698;28;20035;-63
2021/10/25 12:40:00;;;;;;;6.15;3.78;;;;;;;12.63;41.50;97788.25;5094392;28;20039;-66
2021/10/25 12:42:41;;;;;;;4.65;2.53;;;;;;;12.62;40.09;97788.28;5094701;28;20020;-63
2021/10/25 12:45:20;;;;;;;4.63;2.40;;;;;;;12.57;40.78;97790.16;5094645;28;20026;-61
2021/10/25 12:47:52;;;;;;;3.28;2.17;;;;;;;12.45;41.89;97780.84;5094708;28;20035;-64
2021/10/25 12:50:18;;;;;;;3.53;2.60;;;;;;;12.47;41.55;97786.94;5094577;28;20021;-64
2021/10/25 12:52:52;;;;;;;4.50;2.65;;;;;;;12.55;41.16;97784.13;5094855;28;20028;-65
2021/10/25 12:55:18;;;;;;;5.22;2.47;;;;;;;12.59;40.92;97780.50;5094439;28;20024;-61
2021/10/25 12:57:44;;;;;;;2.97;1.90;;;;;;;12.58;40.74;97781.41;5094369;28;20024;-63
2021/10/25 13:00:16;;;;;;;5.75;2.55;;;;;;;12.51;41.02;97785.94;5095600;28;20032;-63
2021/10/25 13:02:48;;;;;;;4.63;2.92;;;;;;;12.26;40.19;97786.56;5094383;28;20077;-61
2021/10/25 13:05:22;;;;;;;5.13;2.13;;;;;;;12.22;39.78;97779.69;5094151;28;20034;-64
2021/10/25 13:07:56;;;;;;;8.90;2.50;;;;;;;12.20;41.04;97781.47;5094317;28;20020;-64
2021/10/25 13:10:26;;;;;;;5.25;2.70;;;;;;;12.05;40.01;97788.81;5094193;28;20549;-61
2021/10/25 13:12:54;;;;;;;8.83;2.57;;;;;;;12.00;42.08;97786.28;5094080;28;20016;-59
2021/10/25 13:15:23;;;;;;;5.45;2.72;;;;;;;11.99;40.08;97784.56;5093994;28;20032;-63
2021/10/25 13:17:50;;;;;;;4.43;2.53;;;;;;;12.05;41.68;97777.44;5093978;28;20024;-64